createdAt,value
2023-02-28T00:00:12.973Z,2.92
2023-02-28T00:02:43.158Z,3.02
2023-02-28T00:05:10.216Z,2.93
2023-02-28T00:07:37.098Z,2.88
2023-02-28T00:10:04.842Z,2.73
2023-02-28T00:12:31.369Z,2.71
2023-02-28T00:14:57.952Z,2.64
2023-02-28T00:17:24.703Z,2.69
2023-02-28T00:19:52.013Z,2.75
2023-02-28T00:22:19.911Z,2.72
2023-02-28T00:24:46.638Z,2.68
2023-02-28T00:27:13.124Z,2.58
2023-02-28T00:29:39.912Z,2.45
2023-02-28T00:32:07.175Z,2.34
2023-02-28T00:34:38.686Z,2.38
2023-02-28T00:37:09.912Z,2.37
2023-02-28T00:39:37.335Z,2.37
2023-02-28T00:42:04.811Z,2.36
2023-02-28T00:44:32.272Z,2.40
2023-02-28T00:46:59.898Z,2.36
2023-02-28T00:49:27.774Z,2.34
2023-02-28T00:51:54.997Z,2.26
2023-02-28T00:54:22.220Z,2.19
2023-02-28T00:56:49.040Z,2.16
2023-02-28T00:59:16.529Z,2.10
2023-02-28T01:01:43.724Z,2.11
2023-02-28T01:04:10.477Z,2.08
2023-02-28T01:06:37.219Z,2.06
2023-02-28T01:09:04.977Z,2.07
2023-02-28T01:11:31.641Z,2.03
2023-02-28T01:13:58.238Z,2.03
2023-02-28T01:16:25.236Z,2.05
2023-02-28T01:18:51.751Z,2.07
2023-02-28T01:21:19.551Z,2.05
2023-02-28T01:23:46.640Z,1.97
2023-02-28T01:26:14.898Z,1.96
2023-02-28T01:28:42.105Z,2.01
2023-02-28T01:31:09.198Z,2.05
2023-02-28T01:33:38.338Z,2.07
2023-02-28T01:36:10.881Z,2.08
2023-02-28T01:38:37.502Z,2.04
2023-02-28T01:41:04.822Z,2.07
2023-02-28T01:43:54.107Z,2.07
2023-02-28T01:46:20.624Z,1.98
2023-02-28T01:48:57.307Z,1.86
2023-02-28T01:51:32.613Z,1.77
2023-02-28T01:54:14.706Z,1.71
2023-02-28T01:56:44.941Z,1.62
2023-02-28T01:59:13.658Z,1.57
2023-02-28T02:01:40.310Z,1.55
2023-02-28T02:04:06.876Z,1.52
2023-02-28T02:06:43.310Z,1.45
2023-02-28T02:09:10.587Z,1.48
2023-02-28T02:11:38.453Z,1.51
2023-02-28T02:14:11.220Z,1.52
2023-02-28T02:16:47.537Z,1.62
2023-02-28T02:19:17.090Z,1.54
2023-02-28T02:22:13.037Z,1.40
2023-02-28T02:24:52.538Z,1.34
2023-02-28T02:27:19.298Z,1.30
2023-02-28T02:29:57.838Z,1.37
2023-02-28T02:32:43.545Z,1.35
2023-02-28T02:35:22.014Z,1.33
2023-02-28T02:37:48.540Z,1.28
2023-02-28T02:40:18.271Z,1.29
2023-02-28T02:42:51.808Z,1.24
2023-02-28T02:45:28.250Z,1.20
2023-02-28T02:47:57.333Z,1.22
2023-02-28T02:50:27.092Z,1.21
2023-02-28T02:52:56.925Z,1.20
2023-02-28T02:55:24.211Z,1.18
2023-02-28T02:57:53.922Z,1.08
2023-02-28T03:00:23.915Z,1.03
2023-02-28T03:02:53.643Z,1.00
2023-02-28T03:05:22.590Z,0.97
2023-02-28T03:07:49.152Z,0.87
2023-02-28T03:10:34.477Z,0.86
2023-02-28T03:13:08.645Z,0.83
2023-02-28T03:15:45.715Z,0.78
2023-02-28T03:18:20.755Z,0.74
2023-02-28T03:20:55.257Z,0.71
2023-02-28T03:23:24.543Z,0.70
2023-02-28T03:25:51.020Z,0.71
2023-02-28T03:28:38.544Z,0.71
2023-02-28T03:31:13.461Z,0.68
2023-02-28T03:33:43.012Z,0.70
2023-02-28T03:36:13.551Z,0.69
2023-02-28T03:38:45.381Z,0.68
2023-02-28T03:41:17.732Z,0.65
2023-02-28T03:43:48.551Z,0.58
2023-02-28T03:46:19.229Z,0.55
2023-02-28T03:48:50.015Z,0.54
2023-02-28T03:51:19.292Z,0.52
2023-02-28T03:53:49.006Z,0.52
2023-02-28T03:56:28.213Z,0.56
2023-02-28T03:58:58.213Z,0.58
2023-02-28T04:01:28.522Z,0.63
2023-02-28T04:03:55.429Z,0.65
2023-02-28T04:06:22.956Z,0.60
2023-02-28T04:08:49.701Z,0.62
2023-02-28T04:11:22.433Z,0.59
2023-02-28T04:13:49.326Z,0.60
2023-02-28T04:16:32.176Z,0.57
2023-02-28T04:19:03.773Z,0.54
2023-02-28T04:21:31.377Z,0.52
2023-02-28T04:24:01.449Z,0.50
2023-02-28T04:26:37.200Z,0.50
2023-02-28T04:29:04.854Z,0.53
2023-02-28T04:31:33.054Z,0.56
2023-02-28T04:33:59.799Z,0.57
2023-02-28T04:36:26.349Z,0.56
2023-02-28T04:39:06.632Z,0.63
2023-02-28T04:41:46.003Z,0.65
2023-02-28T04:44:22.488Z,0.72
2023-02-28T04:46:49.921Z,0.69
2023-02-28T04:49:16.813Z,0.63
2023-02-28T04:51:45.743Z,0.60
2023-02-28T04:54:12.638Z,0.63
2023-02-28T04:56:41.243Z,0.67
2023-02-28T04:59:07.731Z,0.71
2023-02-28T05:01:34.894Z,0.65
2023-02-28T05:04:02.795Z,0.60
2023-02-28T05:06:30.096Z,0.59
2023-02-28T05:08:57.453Z,0.59
2023-02-28T05:11:25.435Z,0.52
2023-02-28T05:13:53.232Z,0.62
2023-02-28T05:16:20.277Z,0.72
2023-02-28T05:18:47.021Z,0.77
2023-02-28T05:21:24.831Z,0.84
2023-02-28T05:23:51.622Z,0.84
2023-02-28T05:26:18.168Z,0.96
2023-02-28T05:28:44.635Z,1.00
2023-02-28T05:31:14.599Z,1.10
2023-02-28T05:33:41.221Z,1.18
2023-02-28T05:36:07.912Z,1.16
2023-02-28T05:38:34.446Z,1.23
2023-02-28T05:41:00.949Z,1.18
2023-02-28T05:43:27.496Z,1.19
2023-02-28T05:45:54.111Z,1.14
2023-02-28T05:48:20.677Z,1.28
2023-02-28T05:50:47.242Z,1.36
2023-02-28T05:53:13.843Z,1.25
2023-02-28T05:55:42.080Z,1.25
2023-02-28T05:58:08.703Z,1.32
2023-02-28T06:00:36.025Z,1.29
2023-02-28T06:03:03.168Z,1.19
2023-02-28T06:05:29.756Z,1.15
2023-02-28T06:07:56.242Z,1.21
2023-02-28T06:10:23.047Z,1.19
2023-02-28T06:12:49.548Z,1.16
2023-02-28T06:15:16.511Z,1.15
2023-02-28T06:17:44.508Z,1.12
2023-02-28T06:20:13.764Z,1.02
2023-02-28T06:22:40.715Z,0.96
2023-02-28T06:25:07.769Z,0.87
2023-02-28T06:27:34.535Z,0.83
2023-02-28T06:30:01.096Z,0.85
2023-02-28T06:32:27.742Z,0.91
2023-02-28T06:34:54.341Z,0.95
2023-02-28T06:37:21.158Z,0.94
2023-02-28T06:39:47.928Z,1.01
2023-02-28T06:42:14.699Z,1.00
2023-02-28T06:44:41.431Z,1.08
2023-02-28T06:47:07.972Z,1.12
2023-02-28T06:49:35.243Z,1.09
2023-02-28T06:52:02.209Z,1.06
2023-02-28T06:54:28.761Z,1.06
2023-02-28T06:56:55.477Z,1.10
2023-02-28T06:59:22.220Z,1.12
2023-02-28T07:01:48.845Z,1.25
2023-02-28T07:04:15.567Z,1.32
2023-02-28T07:06:42.150Z,1.42
2023-02-28T07:09:09.233Z,1.55
2023-02-28T07:11:36.011Z,1.73
2023-02-28T07:14:02.682Z,1.87
2023-02-28T07:16:29.235Z,1.84
2023-02-28T07:18:56.218Z,1.83
2023-02-28T07:21:23.289Z,1.90
2023-02-28T07:23:49.857Z,1.97
2023-02-28T07:26:17.939Z,2.02
2023-02-28T07:28:45.660Z,2.09
2023-02-28T07:31:12.916Z,2.33
2023-02-28T07:33:39.652Z,2.16
2023-02-28T07:36:10.256Z,2.16
2023-02-28T07:38:38.332Z,2.27
2023-02-28T07:41:05.340Z,2.44
2023-02-28T07:43:32.735Z,2.72
2023-02-28T07:46:03.849Z,2.99
2023-02-28T07:48:30.510Z,3.16
2023-02-28T07:50:57.818Z,3.32
2023-02-28T07:53:24.621Z,3.44
2023-02-28T07:55:51.256Z,3.40
2023-02-28T07:58:17.858Z,3.62
2023-02-28T08:00:44.570Z,3.76
2023-02-28T08:03:14.449Z,3.84
2023-02-28T08:05:41.445Z,3.89
2023-02-28T08:08:08.533Z,4.07
2023-02-28T08:10:35.330Z,4.11
2023-02-28T08:13:01.852Z,3.95
2023-02-28T08:15:28.507Z,4.01
2023-02-28T08:17:57.238Z,4.11
2023-02-28T08:20:24.661Z,4.13
2023-02-28T08:22:51.331Z,4.14
2023-02-28T08:25:18.072Z,4.22
2023-02-28T08:27:44.884Z,4.19
2023-02-28T08:30:12.668Z,4.25
2023-02-28T08:32:39.685Z,4.18
2023-02-28T08:35:06.483Z,3.90
2023-02-28T08:37:33.010Z,3.67
2023-02-28T08:39:59.630Z,3.63
2023-02-28T08:42:26.308Z,3.60
2023-02-28T08:44:52.916Z,3.65
2023-02-28T08:47:19.972Z,3.67
2023-02-28T08:49:47.325Z,3.79
2023-02-28T08:52:13.971Z,3.61
2023-02-28T08:54:40.565Z,3.57
2023-02-28T08:57:07.228Z,3.61
2023-02-28T08:59:33.830Z,3.56
2023-02-28T09:02:01.523Z,3.50
2023-02-28T09:04:28.103Z,3.66
2023-02-28T09:06:54.821Z,3.72
2023-02-28T09:09:21.432Z,3.61
2023-02-28T09:11:48.078Z,3.59
2023-02-28T09:14:14.845Z,3.72
2023-02-28T09:16:41.542Z,3.97
2023-02-28T09:19:11.365Z,4.03
2023-02-28T09:21:37.906Z,4.15
2023-02-28T09:24:04.621Z,4.12
2023-02-28T09:26:35.322Z,4.12
2023-02-28T09:29:10.138Z,4.31
2023-02-28T09:31:36.795Z,4.52
2023-02-28T09:34:04.999Z,4.48
2023-02-28T09:36:43.539Z,4.73
2023-02-28T09:39:11.755Z,4.56
2023-02-28T09:41:42.365Z,4.72
2023-02-28T09:44:13.997Z,4.82
2023-02-28T09:46:44.088Z,4.50
2023-02-28T09:49:15.589Z,4.47
2023-02-28T09:51:56.153Z,4.53
2023-02-28T09:54:24.016Z,4.57
2023-02-28T09:56:53.832Z,4.90
2023-02-28T09:59:32.758Z,4.91
2023-02-28T10:02:15.004Z,5.02
2023-02-28T10:04:52.555Z,5.08
2023-02-28T10:07:38.112Z,5.12
2023-02-28T10:10:09.878Z,5.18
2023-02-28T10:12:39.907Z,5.13
2023-02-28T10:15:06.943Z,5.17
2023-02-28T10:17:55.635Z,5.42
2023-02-28T10:20:32.391Z,5.32
2023-02-28T10:23:11.371Z,5.80
2023-02-28T10:25:39.341Z,7.58
2023-02-28T10:28:27.324Z,12.22
2023-02-28T10:30:55.167Z,15.90
2023-02-28T10:33:41.541Z,18.03
2023-02-28T10:36:14.587Z,19.33
2023-02-28T10:38:41.314Z,20.26
2023-02-28T10:41:12.843Z,20.41
2023-02-28T10:43:40.938Z,21.13
2023-02-28T10:46:10.940Z,22.28
2023-02-28T10:48:41.722Z,22.63
2023-02-28T10:51:10.951Z,22.50
2023-02-28T10:54:01.399Z,20.98
2023-02-28T10:56:30.040Z,20.64
2023-02-28T10:59:09.461Z,19.02
2023-02-28T11:01:39.249Z,19.60
2023-02-28T11:04:20.628Z,21.96
2023-02-28T11:06:54.858Z,22.14
2023-02-28T11:09:28.140Z,19.95
2023-02-28T11:11:54.934Z,20.02
2023-02-28T11:14:30.052Z,20.36
2023-02-28T11:17:00.427Z,20.40
2023-02-28T11:19:29.965Z,21.37
2023-02-28T11:22:00.373Z,22.56
2023-02-28T11:24:29.684Z,23.05
2023-02-28T11:26:56.637Z,23.18
2023-02-28T11:29:25.587Z,22.97
2023-02-28T11:32:03.203Z,23.11
2023-02-28T11:34:32.669Z,24.29
2023-02-28T11:37:02.497Z,23.76
2023-02-28T11:39:30.691Z,25.12
2023-02-28T11:42:03.874Z,21.88
2023-02-28T11:44:37.925Z,21.15
2023-02-28T11:47:15.706Z,20.92
2023-02-28T11:50:02.918Z,21.28
2023-02-28T11:52:42.243Z,20.08
2023-02-28T11:55:17.983Z,20.42
2023-02-28T11:57:49.986Z,21.39
2023-02-28T12:00:30.657Z,22.28
2023-02-28T12:03:00.219Z,22.32
2023-02-28T12:05:32.959Z,22.03
2023-02-28T12:07:59.545Z,22.03
2023-02-28T12:10:28.247Z,22.32
2023-02-28T12:13:07.014Z,21.92
2023-02-28T12:15:44.547Z,22.47
2023-02-28T12:18:23.913Z,23.49
2023-02-28T12:21:14.182Z,23.07
2023-02-28T12:23:55.928Z,23.16
2023-02-28T12:26:36.240Z,21.51
2023-02-28T12:29:16.903Z,20.95
2023-02-28T12:31:48.156Z,21.78
2023-02-28T12:34:19.673Z,22.03
2023-02-28T12:36:50.693Z,21.57
2023-02-28T12:39:24.511Z,20.42
2023-02-28T12:42:00.975Z,21.87
2023-02-28T12:44:27.742Z,22.29
2023-02-28T12:46:56.716Z,21.74
2023-02-28T12:49:28.132Z,19.65
2023-02-28T12:51:55.047Z,19.01
2023-02-28T12:54:33.490Z,16.48
2023-02-28T12:57:09.309Z,14.21
2023-02-28T12:59:35.758Z,13.55
2023-02-28T13:02:20.965Z,13.09
2023-02-28T13:05:05.139Z,12.10
2023-02-28T13:07:43.507Z,11.66
2023-02-28T13:10:11.349Z,11.42
2023-02-28T13:12:48.256Z,10.89
2023-02-28T13:15:20.188Z,10.77
2023-02-28T13:17:49.192Z,10.97
2023-02-28T13:20:16.996Z,10.49
2023-02-28T13:22:45.185Z,10.42
2023-02-28T13:25:24.326Z,10.36
2023-02-28T13:27:57.256Z,10.16
2023-02-28T13:30:42.880Z,9.83
2023-02-28T13:33:24.651Z,9.65
2023-02-28T13:36:22.759Z,9.38
2023-02-28T13:38:54.435Z,9.30
2023-02-28T13:41:31.000Z,9.44
2023-02-28T13:44:04.079Z,9.52
2023-02-28T13:46:31.477Z,9.28
2023-02-28T13:49:18.276Z,9.30
2023-02-28T13:51:47.870Z,9.11
2023-02-28T13:54:25.376Z,8.97
2023-02-28T13:57:01.557Z,9.07
2023-02-28T13:59:35.586Z,9.03
2023-02-28T14:02:31.803Z,8.89
2023-02-28T14:05:02.490Z,8.53
2023-02-28T14:07:43.182Z,8.56
2023-02-28T14:10:23.126Z,8.59
2023-02-28T14:13:12.988Z,8.61
2023-02-28T14:15:45.863Z,8.74
2023-02-28T14:18:18.343Z,8.91
2023-02-28T14:20:46.732Z,9.05
2023-02-28T14:23:19.504Z,9.07
2023-02-28T14:26:01.245Z,9.05
2023-02-28T14:28:38.432Z,8.86
2023-02-28T14:31:18.648Z,9.05
2023-02-28T14:34:27.632Z,9.18
2023-02-28T14:36:58.785Z,8.97
2023-02-28T14:39:40.585Z,8.95
2023-02-28T14:42:31.669Z,9.10
2023-02-28T14:45:05.510Z,8.89
2023-02-28T14:47:38.875Z,8.68
2023-02-28T14:50:37.777Z,8.70
2023-02-28T14:53:13.755Z,8.51
2023-02-28T14:55:55.756Z,8.40
2023-02-28T14:58:28.102Z,8.68
2023-02-28T15:01:02.742Z,8.89
2023-02-28T15:03:52.543Z,9.17
2023-02-28T15:06:40.201Z,9.00
2023-02-28T15:09:18.746Z,8.62
2023-02-28T15:11:51.524Z,8.56
2023-02-28T15:14:25.270Z,8.66
2023-02-28T15:17:03.909Z,8.62
2023-02-28T15:19:36.850Z,8.60
2023-02-28T15:22:18.108Z,8.47
2023-02-28T15:24:55.654Z,8.36
2023-02-28T15:27:33.546Z,8.38
2023-02-28T15:30:17.393Z,8.34
2023-02-28T15:32:46.457Z,8.11
2023-02-28T15:35:33.469Z,8.03
2023-02-28T15:38:24.483Z,7.99
2023-02-28T15:41:15.378Z,7.79
2023-02-28T15:47:22.128Z,7.56
2023-02-28T15:50:09.736Z,7.45
2023-02-28T15:52:59.911Z,7.48
2023-02-28T15:55:29.155Z,7.50
2023-02-28T15:58:26.236Z,7.64
2023-02-28T16:01:08.462Z,7.63
2023-02-28T16:03:47.015Z,7.46
2023-02-28T16:06:58.622Z,7.38
2023-02-28T16:12:49.294Z,7.23
2023-02-28T16:15:27.916Z,7.08
2023-02-28T16:18:10.425Z,7.11
2023-02-28T16:20:44.892Z,7.14
2023-02-28T16:23:14.267Z,7.01
2023-02-28T16:25:44.932Z,6.90
2023-02-28T16:28:32.350Z,6.88
2023-02-28T16:31:01.074Z,6.89
2023-02-28T16:33:31.085Z,6.79
2023-02-28T16:36:02.751Z,6.79
2023-02-28T16:38:30.159Z,6.80
2023-02-28T16:41:03.144Z,6.78
2023-02-28T16:43:33.712Z,6.77
2023-02-28T16:46:12.223Z,6.71
2023-02-28T16:48:45.728Z,6.68
2023-02-28T16:51:17.337Z,6.59
2023-02-28T16:53:48.540Z,6.63
2023-02-28T16:56:23.652Z,6.64
2023-02-28T16:58:51.757Z,6.67
2023-02-28T17:01:32.063Z,6.73
2023-02-28T17:04:16.302Z,6.78
2023-02-28T17:07:01.400Z,6.66
2023-02-28T17:09:43.062Z,6.59
2023-02-28T17:12:13.472Z,6.56
2023-02-28T17:14:46.029Z,6.53
2023-02-28T17:20:15.326Z,6.53
2023-02-28T17:23:03.890Z,6.50
2023-02-28T17:25:36.892Z,6.52
2023-02-28T17:28:15.738Z,6.50
2023-02-28T17:30:56.550Z,6.47
2023-02-28T17:33:26.671Z,6.40
2023-02-28T17:35:55.630Z,6.39
2023-02-28T17:38:36.228Z,6.40
2023-02-28T17:41:03.619Z,6.43
2023-02-28T17:43:39.902Z,6.46
2023-02-28T17:46:27.133Z,6.49
2023-02-28T17:48:54.793Z,6.44
2023-02-28T17:51:25.398Z,6.41
2023-02-28T17:53:55.544Z,6.37
2023-02-28T17:56:28.734Z,6.34
2023-02-28T17:58:57.697Z,6.30
2023-02-28T18:01:34.501Z,6.32
2023-02-28T18:04:15.100Z,6.23
2023-02-28T18:07:03.900Z,6.16
2023-02-28T18:09:48.653Z,6.12
2023-02-28T18:12:18.525Z,6.14
2023-02-28T18:14:48.362Z,6.08
2023-02-28T18:17:22.566Z,6.05
2023-02-28T18:20:13.172Z,6.05
2023-02-28T18:22:54.345Z,6.07
2023-02-28T18:25:31.249Z,6.06
2023-02-28T18:28:08.486Z,6.03
2023-02-28T18:30:39.929Z,6.03
2023-02-28T18:33:11.870Z,6.05
2023-02-28T18:35:46.075Z,6.04
2023-02-28T18:38:15.473Z,6.02
2023-02-28T18:40:57.944Z,6.00
2023-02-28T18:43:28.861Z,5.92
2023-02-28T18:46:01.686Z,5.86
2023-02-28T18:48:35.524Z,5.83
2023-02-28T18:51:06.954Z,5.79
2023-02-28T18:53:40.163Z,5.75
2023-02-28T18:56:11.693Z,5.69
2023-02-28T18:58:53.561Z,5.62
2023-02-28T19:01:22.547Z,5.55
2023-02-28T19:03:53.121Z,5.55
2023-02-28T19:06:20.988Z,5.51
2023-02-28T19:08:55.009Z,5.45
2023-02-28T19:11:22.486Z,5.42
2023-02-28T19:13:53.451Z,5.39
2023-02-28T19:16:32.278Z,5.39
2023-02-28T19:19:14.832Z,5.37
2023-02-28T19:21:42.515Z,5.38
2023-02-28T19:24:15.610Z,5.42
2023-02-28T19:26:44.796Z,5.45
2023-02-28T19:29:17.579Z,5.43
2023-02-28T19:31:54.128Z,5.41
2023-02-28T19:34:24.745Z,5.36
2023-02-28T19:36:51.964Z,5.36
2023-02-28T19:39:22.025Z,5.33
2023-02-28T19:41:49.509Z,5.30
2023-02-28T19:44:20.750Z,5.28
2023-02-28T19:47:14.884Z,5.25
2023-02-28T19:49:43.045Z,5.23
2023-02-28T19:52:15.504Z,5.17
2023-02-28T19:54:42.898Z,5.17
2023-02-28T19:57:11.933Z,5.20
2023-02-28T19:59:43.461Z,5.22
2023-02-28T20:02:14.629Z,5.18
2023-02-28T20:04:46.932Z,5.23
2023-02-28T20:07:23.678Z,5.27
2023-02-28T20:10:02.379Z,5.29
2023-02-28T20:12:33.594Z,5.27
2023-02-28T20:15:04.229Z,5.25
2023-02-28T20:17:35.482Z,5.25
2023-02-28T20:20:02.617Z,5.22
2023-02-28T20:22:38.280Z,5.15
2023-02-28T20:25:07.160Z,5.09
2023-02-28T20:27:38.424Z,5.05
2023-02-28T20:30:08.851Z,4.99
2023-02-28T20:32:49.539Z,4.92
2023-02-28T20:35:23.202Z,4.84
2023-02-28T20:37:54.493Z,4.74
2023-02-28T20:40:30.719Z,4.66
2023-02-28T20:43:01.410Z,4.73
2023-02-28T20:45:32.297Z,4.80
2023-02-28T20:48:02.048Z,4.63
2023-02-28T20:50:34.308Z,4.54
2023-02-28T20:53:02.040Z,4.52
2023-02-28T20:55:29.593Z,4.62
2023-02-28T20:58:00.206Z,4.64
2023-02-28T21:00:34.233Z,4.56
2023-02-28T21:03:07.242Z,4.59
2023-02-28T21:05:44.830Z,4.67
2023-02-28T21:08:21.406Z,4.70
2023-02-28T21:10:56.421Z,4.64
2023-02-28T21:13:33.309Z,4.61
2023-02-28T21:16:14.830Z,4.67
2023-02-28T21:18:42.449Z,4.69
2023-02-28T21:21:20.070Z,4.66
2023-02-28T21:24:05.832Z,4.65
2023-02-28T21:26:55.878Z,4.65
2023-02-28T21:29:27.760Z,4.57
2023-02-28T21:32:02.240Z,4.54
2023-02-28T21:34:35.202Z,4.45
2023-02-28T21:37:10.213Z,4.37
2023-02-28T21:39:40.339Z,4.22
2023-02-28T21:45:32.593Z,4.11
2023-02-28T21:48:21.313Z,4.06
2023-02-28T21:51:06.697Z,3.99
2023-02-28T21:53:40.361Z,3.89
2023-02-28T21:56:30.593Z,3.85
2023-02-28T21:59:04.416Z,3.90
2023-02-28T22:01:43.578Z,3.96
2023-02-28T22:04:28.567Z,4.00
2023-02-28T22:07:03.952Z,4.04
2023-02-28T22:09:37.304Z,4.05
2023-02-28T22:12:10.301Z,4.02
2023-02-28T22:14:50.137Z,3.94
2023-02-28T22:17:39.619Z,3.85
2023-02-28T22:20:18.097Z,3.85
2023-02-28T22:23:17.531Z,3.92
2023-02-28T22:25:47.301Z,3.89
2023-02-28T22:28:47.914Z,3.85
2023-02-28T22:31:41.136Z,3.88
2023-02-28T22:34:22.711Z,3.78
2023-02-28T22:36:56.105Z,3.61
2023-02-28T22:39:27.469Z,3.55
2023-02-28T22:41:57.394Z,3.52
2023-02-28T22:44:31.810Z,3.51
2023-02-28T22:47:02.457Z,3.50
2023-02-28T22:49:35.095Z,3.45
2023-02-28T22:52:18.059Z,3.43
2023-02-28T22:54:54.414Z,3.47
2023-02-28T22:57:24.744Z,3.35
2023-02-28T23:00:04.951Z,3.22
2023-02-28T23:02:44.309Z,3.14
2023-02-28T23:05:28.024Z,3.08
2023-02-28T23:08:22.640Z,3.02
2023-02-28T23:10:57.481Z,2.99
2023-02-28T23:13:36.327Z,2.97
2023-02-28T23:16:12.586Z,2.98
2023-02-28T23:18:46.848Z,2.99
2023-02-28T23:21:21.798Z,2.99
2023-02-28T23:24:02.146Z,2.97
2023-02-28T23:26:35.133Z,2.95
2023-02-28T23:29:05.835Z,2.91
2023-02-28T23:31:44.849Z,2.88
2023-02-28T23:34:13.728Z,2.90
2023-02-28T23:36:46.448Z,2.98
2023-02-28T23:39:20.295Z,3.05
2023-02-28T23:41:49.969Z,3.05
2023-02-28T23:44:20.102Z,2.95
2023-02-28T23:49:39.705Z,2.92
2023-02-28T23:52:18.184Z,2.96
2023-02-28T23:54:45.243Z,2.89
2023-02-28T23:57:27.451Z,2.92
2023-02-28T23:59:55.967Z,2.91
